createdAt,value
2023-01-15T00:02:18.259Z,29.60
2023-01-15T00:04:46.650Z,31.70
2023-01-15T00:07:14.667Z,31.20
2023-01-15T00:09:42.639Z,28.80
2023-01-15T00:12:10.689Z,25.70
2023-01-15T00:14:38.733Z,31.70
2023-01-15T00:17:06.672Z,33.50
2023-01-15T00:19:34.792Z,35.90
2023-01-15T00:22:02.945Z,32.90
2023-01-15T00:24:49.707Z,32.00
2023-01-15T00:27:40.680Z,25.90
2023-01-15T00:30:13.231Z,25.30
2023-01-15T00:32:42.564Z,20.60
2023-01-15T00:35:16.906Z,21.70
2023-01-15T00:37:45.301Z,22.10
2023-01-15T00:40:14.912Z,20.80
2023-01-15T00:42:44.222Z,18.90
2023-01-15T00:45:21.218Z,21.30
2023-01-15T00:47:50.806Z,19.90
2023-01-15T00:50:19.027Z,19.30
2023-01-15T00:52:46.962Z,19.40
2023-01-15T00:55:15.094Z,18.50
2023-01-15T00:57:43.618Z,17.80
2023-01-15T01:00:12.859Z,22.10
2023-01-15T01:02:41.453Z,19.80
2023-01-15T01:05:12.121Z,18.40
2023-01-15T01:07:40.123Z,20.90
2023-01-15T01:10:09.373Z,22.00
2023-01-15T01:12:37.843Z,21.80
2023-01-15T01:15:06.784Z,21.50
2023-01-15T01:17:34.855Z,20.60
2023-01-15T01:20:04.920Z,22.30
2023-01-15T01:22:33.811Z,21.90
2023-01-15T01:25:03.389Z,24.60
2023-01-15T01:27:31.555Z,24.60
2023-01-15T01:30:00.253Z,24.40
2023-01-15T01:32:28.214Z,25.50
2023-01-15T01:34:58.341Z,25.10
2023-01-15T01:37:26.351Z,25.20
2023-01-15T01:39:55.302Z,24.50
2023-01-15T01:42:23.841Z,22.20
2023-01-15T01:44:58.748Z,21.60
2023-01-15T01:47:29.709Z,23.60
2023-01-15T01:50:02.165Z,23.50
2023-01-15T01:52:37.394Z,21.70
2023-01-15T01:55:07.655Z,22.80
2023-01-15T01:57:36.620Z,23.20
2023-01-15T02:00:07.054Z,25.10
2023-01-15T02:02:46.515Z,23.10
2023-01-15T02:05:28.264Z,26.40
2023-01-15T02:07:56.987Z,23.70
2023-01-15T02:10:25.176Z,24.60
2023-01-15T02:13:05.089Z,24.20
2023-01-15T02:16:14.876Z,23.60
2023-01-15T02:19:00.295Z,25.40
2023-01-15T02:22:13.594Z,23.70
2023-01-15T02:24:59.398Z,22.80
2023-01-15T02:27:29.002Z,23.90
2023-01-15T02:30:02.433Z,23.70
2023-01-15T02:32:46.219Z,26.40
2023-01-15T02:35:41.278Z,24.60
2023-01-15T02:38:16.250Z,23.40
2023-01-15T02:40:48.490Z,24.40
2023-01-15T02:43:22.946Z,24.40
2023-01-15T02:45:56.150Z,24.30
2023-01-15T02:48:28.402Z,22.90
2023-01-15T02:51:03.282Z,23.80
2023-01-15T02:53:36.026Z,25.40
2023-01-15T02:56:11.870Z,22.00
2023-01-15T02:58:50.183Z,21.80
2023-01-15T03:01:34.142Z,20.80
2023-01-15T03:04:25.517Z,21.20
2023-01-15T03:07:01.791Z,23.20
2023-01-15T03:09:32.217Z,23.90
2023-01-15T03:12:12.492Z,24.10
2023-01-15T03:14:54.589Z,25.20
2023-01-15T03:17:28.597Z,25.50
2023-01-15T03:20:02.932Z,20.80
2023-01-15T03:22:33.438Z,21.70
2023-01-15T03:25:08.377Z,19.90
2023-01-15T03:27:41.568Z,17.60
2023-01-15T03:30:14.624Z,17.80
2023-01-15T03:32:42.855Z,18.80
2023-01-15T03:35:48.792Z,16.60
2023-01-15T03:38:33.022Z,17.90
2023-01-15T03:41:25.815Z,17.10
2023-01-15T03:44:23.180Z,16.40
2023-01-15T03:47:15.933Z,14.20
2023-01-15T03:50:12.372Z,13.40
2023-01-15T03:53:06.439Z,14.40
2023-01-15T03:55:43.520Z,15.10
2023-01-15T03:58:24.213Z,16.00
2023-01-15T04:00:56.121Z,12.90
2023-01-15T04:03:28.018Z,13.10
2023-01-15T04:05:59.336Z,13.10
2023-01-15T04:08:32.762Z,14.50
2023-01-15T04:11:02.440Z,14.60
2023-01-15T04:13:33.559Z,17.40
2023-01-15T04:16:02.956Z,13.80
2023-01-15T04:18:31.852Z,16.10
2023-01-15T04:20:59.902Z,15.00
2023-01-15T04:23:28.402Z,13.20
2023-01-15T04:25:57.163Z,14.30
2023-01-15T04:28:25.127Z,13.90
2023-01-15T04:30:53.185Z,18.90
2023-01-15T04:33:21.252Z,14.00
2023-01-15T04:35:49.181Z,15.40
2023-01-15T04:38:18.171Z,13.60
2023-01-15T04:41:04.977Z,16.20
2023-01-15T04:43:51.480Z,14.90
2023-01-15T04:46:26.073Z,14.50
2023-01-15T04:48:54.030Z,17.30
2023-01-15T04:51:22.115Z,15.70
2023-01-15T04:53:50.331Z,17.30
2023-01-15T04:56:18.184Z,23.00
2023-01-15T04:58:46.280Z,21.40
2023-01-15T05:01:16.810Z,23.30
2023-01-15T05:03:46.729Z,22.50
2023-01-15T05:06:15.449Z,20.90
2023-01-15T05:08:43.454Z,21.70
2023-01-15T05:11:12.203Z,21.90
2023-01-15T05:13:41.841Z,22.10
2023-01-15T05:16:13.069Z,19.00
2023-01-15T05:18:42.978Z,21.80
2023-01-15T05:21:22.402Z,20.00
2023-01-15T05:23:52.885Z,19.40
2023-01-15T05:26:21.936Z,17.40
2023-01-15T05:28:54.099Z,16.80
2023-01-15T05:31:23.570Z,18.50
2023-01-15T05:33:53.344Z,18.40
2023-01-15T05:36:24.072Z,20.40
2023-01-15T05:38:54.141Z,34.40
2023-01-15T05:41:42.124Z,36.30
2023-01-15T05:44:13.015Z,35.50
2023-01-15T05:46:42.812Z,38.50
2023-01-15T05:49:14.329Z,38.30
2023-01-15T05:51:43.230Z,40.50
2023-01-15T05:54:14.882Z,42.60
2023-01-15T05:56:43.595Z,41.30
2023-01-15T05:59:12.676Z,40.20
2023-01-15T06:01:40.646Z,44.00
2023-01-15T06:04:11.830Z,40.90
2023-01-15T06:06:40.587Z,44.40
2023-01-15T06:09:08.696Z,43.70
2023-01-15T06:11:36.682Z,47.70
2023-01-15T06:14:05.600Z,47.60
2023-01-15T06:16:34.436Z,48.30
2023-01-15T06:19:04.411Z,50.40
2023-01-15T06:21:34.980Z,49.10
2023-01-15T06:24:03.396Z,49.00
2023-01-15T06:26:32.073Z,42.80
2023-01-15T06:29:00.052Z,43.90
2023-01-15T06:31:28.952Z,48.50
2023-01-15T06:33:57.824Z,45.70
2023-01-15T06:36:27.149Z,43.20
2023-01-15T06:38:56.085Z,41.00
2023-01-15T06:41:44.450Z,37.40
2023-01-15T06:44:37.617Z,37.50
2023-01-15T06:47:21.254Z,45.60
2023-01-15T06:49:55.682Z,45.10
2023-01-15T06:52:25.996Z,35.90
2023-01-15T06:54:54.034Z,36.40
2023-01-15T06:57:23.027Z,37.80
2023-01-15T06:59:51.667Z,41.60
2023-01-15T07:02:21.969Z,35.50
2023-01-15T07:04:52.069Z,31.90
2023-01-15T07:07:22.296Z,30.70
2023-01-15T07:09:50.974Z,22.50
2023-01-15T07:12:19.170Z,26.40
2023-01-15T07:14:47.334Z,19.80
2023-01-15T07:17:15.691Z,14.50
2023-01-15T07:19:44.082Z,13.00
2023-01-15T07:22:12.317Z,13.40
2023-01-15T07:24:40.543Z,11.30
2023-01-15T07:27:08.802Z,12.90
2023-01-15T07:29:37.085Z,14.30
2023-01-15T07:32:05.675Z,13.10
2023-01-15T07:34:33.951Z,13.90
2023-01-15T07:37:01.954Z,14.90
2023-01-15T07:39:32.006Z,15.80
2023-01-15T07:42:18.951Z,16.60
2023-01-15T07:45:05.770Z,16.70
2023-01-15T07:47:53.583Z,16.40
2023-01-15T07:50:24.107Z,13.40
2023-01-15T07:52:53.376Z,16.20
2023-01-15T07:55:23.218Z,13.20
2023-01-15T07:57:51.384Z,16.40
2023-01-15T08:00:22.522Z,16.20
2023-01-15T08:02:51.252Z,14.30
2023-01-15T08:05:19.870Z,12.30
2023-01-15T08:07:49.258Z,12.00
2023-01-15T08:10:17.567Z,13.50
2023-01-15T08:13:04.257Z,12.30
2023-01-15T08:15:35.270Z,11.20
2023-01-15T08:18:03.444Z,12.80
2023-01-15T08:20:31.421Z,11.20
2023-01-15T08:23:01.726Z,10.90
2023-01-15T08:25:29.920Z,15.40
2023-01-15T08:28:03.284Z,13.40
2023-01-15T08:30:31.529Z,10.80
2023-01-15T08:33:03.087Z,20.10
2023-01-15T08:35:31.900Z,14.30
2023-01-15T08:38:10.075Z,14.80
2023-01-15T08:40:58.018Z,16.20
2023-01-15T08:43:27.786Z,14.00
2023-01-15T08:45:58.179Z,14.30
2023-01-15T08:48:28.277Z,22.40
2023-01-15T08:50:56.559Z,25.50
2023-01-15T08:53:24.830Z,21.80
2023-01-15T08:55:53.874Z,25.60
2023-01-15T08:58:21.808Z,26.40
2023-01-15T09:00:49.947Z,25.20
2023-01-15T09:03:19.416Z,22.50
2023-01-15T09:05:47.726Z,33.40
2023-01-15T09:08:16.057Z,26.20
2023-01-15T09:10:44.126Z,21.80
2023-01-15T09:13:12.302Z,19.20
2023-01-15T09:15:40.252Z,21.80
2023-01-15T09:18:10.741Z,22.30
2023-01-15T09:20:38.723Z,18.20
2023-01-15T09:23:07.562Z,19.10
2023-01-15T09:25:35.982Z,19.60
2023-01-15T09:28:04.444Z,22.00
2023-01-15T09:30:33.270Z,22.30
2023-01-15T09:33:01.219Z,18.20
2023-01-15T09:35:29.638Z,21.10
2023-01-15T09:37:57.967Z,20.90
2023-01-15T09:40:35.266Z,19.80
2023-01-15T09:43:09.772Z,20.80
2023-01-15T09:45:44.166Z,20.20
2023-01-15T09:48:28.586Z,21.50
2023-01-15T09:51:12.896Z,23.90
2023-01-15T09:53:46.963Z,22.50
2023-01-15T09:56:27.928Z,24.70
2023-01-15T09:59:00.238Z,20.60
2023-01-15T10:01:31.461Z,23.10
2023-01-15T10:04:06.638Z,21.90
2023-01-15T10:09:37.695Z,23.20
2023-01-15T10:12:40.001Z,24.60
2023-01-15T10:15:29.738Z,25.60
2023-01-15T10:17:59.804Z,25.60
2023-01-15T10:20:43.240Z,21.00
2023-01-15T10:23:20.135Z,24.70
2023-01-15T10:25:51.111Z,23.70
2023-01-15T10:28:31.440Z,25.80
2023-01-15T10:31:12.615Z,22.90
2023-01-15T10:34:04.918Z,23.00
2023-01-15T10:36:40.452Z,25.70
2023-01-15T10:39:23.097Z,22.80
2023-01-15T10:41:56.871Z,24.90
2023-01-15T10:44:40.271Z,22.90
2023-01-15T10:47:16.021Z,28.00
2023-01-15T10:49:44.344Z,25.10
2023-01-15T10:52:24.325Z,24.60
2023-01-15T10:55:03.951Z,28.10
2023-01-15T10:57:54.257Z,29.70
2023-01-15T11:00:28.103Z,27.70
2023-01-15T11:02:56.191Z,29.00
2023-01-15T11:05:24.198Z,29.50
2023-01-15T11:08:19.791Z,27.50
2023-01-15T11:10:41.839Z,24.80
2023-01-15T11:13:41.660Z,27.00
2023-01-15T11:16:39.011Z,26.20
2023-01-15T11:19:42.406Z,25.90
2023-01-15T11:22:14.781Z,27.00
2023-01-15T11:25:03.497Z,30.50
2023-01-15T11:27:34.117Z,26.00
2023-01-15T11:30:08.484Z,28.10
2023-01-15T11:32:38.601Z,28.50
2023-01-15T11:35:18.946Z,29.70
2023-01-15T11:37:46.920Z,25.50
2023-01-15T11:40:24.596Z,26.40
2023-01-15T11:43:11.481Z,29.50
2023-01-15T11:46:10.305Z,28.80
2023-01-15T11:49:05.811Z,27.00
2023-01-15T11:51:42.215Z,25.60
2023-01-15T11:54:14.290Z,24.80
2023-01-15T11:56:44.764Z,22.40
2023-01-15T11:59:17.730Z,20.90
2023-01-15T12:02:00.886Z,21.20
2023-01-15T12:04:55.038Z,19.50
2023-01-15T12:07:26.685Z,22.10
2023-01-15T12:10:03.927Z,23.40
2023-01-15T12:12:48.208Z,19.10
2023-01-15T12:15:28.824Z,21.10
2023-01-15T12:18:02.611Z,18.10
2023-01-15T12:20:49.711Z,20.10
2023-01-15T12:23:56.378Z,17.60
2023-01-15T12:26:33.004Z,17.30
2023-01-15T12:29:21.153Z,18.70
2023-01-15T12:31:55.430Z,17.50
2023-01-15T12:34:43.436Z,16.00
2023-01-15T12:37:27.632Z,18.20
2023-01-15T12:40:14.063Z,18.40
2023-01-15T12:43:03.118Z,18.90
2023-01-15T12:45:50.241Z,20.20
2023-01-15T12:48:34.414Z,19.50
2023-01-15T12:51:06.587Z,19.80
2023-01-15T12:53:44.996Z,18.00
2023-01-15T12:56:47.260Z,30.30
2023-01-15T12:59:34.454Z,23.20
2023-01-15T13:02:52.214Z,21.30
2023-01-15T13:05:26.318Z,18.40
2023-01-15T13:08:10.807Z,21.00
2023-01-15T13:10:41.304Z,18.70
2023-01-15T13:13:26.030Z,18.00
2023-01-15T13:16:23.573Z,20.00
2023-01-15T13:18:59.838Z,18.50
2023-01-15T13:21:31.506Z,20.10
2023-01-15T13:24:23.086Z,20.30
2023-01-15T13:27:09.361Z,19.70
2023-01-15T13:30:14.696Z,17.30
2023-01-15T13:32:48.756Z,20.10
2023-01-15T13:35:48.716Z,19.60
2023-01-15T13:38:22.649Z,19.70
2023-01-15T13:40:55.092Z,18.10
2023-01-15T13:43:41.445Z,19.20
2023-01-15T13:46:13.564Z,18.90
2023-01-15T13:48:49.442Z,17.70
2023-01-15T13:51:27.741Z,18.40
2023-01-15T13:53:58.195Z,18.70
2023-01-15T13:56:32.389Z,19.00
2023-01-15T13:59:03.513Z,18.50
2023-01-15T14:01:34.559Z,22.30
2023-01-15T14:04:10.655Z,19.50
2023-01-15T14:06:44.594Z,18.90
2023-01-15T14:09:18.970Z,25.00
2023-01-15T14:12:27.835Z,22.50
2023-01-15T14:15:17.183Z,26.20
2023-01-15T14:18:33.232Z,20.20
2023-01-15T14:21:15.693Z,20.20
2023-01-15T14:24:12.208Z,19.80
2023-01-15T14:26:58.893Z,21.30
2023-01-15T14:29:49.943Z,23.20
2023-01-15T14:32:37.864Z,24.30
2023-01-15T14:35:16.580Z,21.20
2023-01-15T14:37:58.890Z,21.50
2023-01-15T14:40:35.458Z,23.10
2023-01-15T14:43:19.841Z,24.00
2023-01-15T14:45:52.755Z,22.20
2023-01-15T14:48:37.542Z,21.70
2023-01-15T14:51:19.120Z,28.80
2023-01-15T14:53:59.725Z,21.50
2023-01-15T14:56:36.292Z,22.30
2023-01-15T14:59:24.584Z,22.10
2023-01-15T15:01:59.915Z,20.30
2023-01-15T15:07:15.330Z,21.90
2023-01-15T15:10:01.032Z,22.80
2023-01-15T15:12:56.405Z,20.50
2023-01-15T15:15:50.796Z,25.20
2023-01-15T15:18:24.519Z,22.90
2023-01-15T15:21:08.359Z,25.00
2023-01-15T15:23:43.791Z,21.10
2023-01-15T15:29:17.473Z,27.10
2023-01-15T15:32:00.003Z,23.30
2023-01-15T15:34:34.955Z,24.10
2023-01-15T15:37:25.828Z,23.80
2023-01-15T15:40:14.898Z,22.30
2023-01-15T15:43:17.679Z,23.50
2023-01-15T15:46:15.319Z,24.40
2023-01-15T15:48:51.209Z,25.20
2023-01-15T15:51:37.182Z,25.60
2023-01-15T15:54:21.692Z,24.00
2023-01-15T15:59:31.549Z,22.90
2023-01-15T16:02:14.974Z,23.90
2023-01-15T16:04:52.113Z,23.60
2023-01-15T16:07:34.178Z,21.30
2023-01-15T16:10:19.567Z,24.30
2023-01-15T16:15:57.278Z,23.60
2023-01-15T16:18:29.091Z,24.50
2023-01-15T16:20:58.212Z,21.90
2023-01-15T16:23:28.809Z,25.20
2023-01-15T16:26:12.319Z,24.10
2023-01-15T16:28:51.136Z,25.70
2023-01-15T16:31:22.859Z,28.50
2023-01-15T16:33:56.372Z,25.40
2023-01-15T16:36:27.049Z,31.30
2023-01-15T16:38:55.600Z,34.70
2023-01-15T16:41:37.595Z,36.80
2023-01-15T16:44:07.574Z,32.50
2023-01-15T16:46:48.279Z,34.20
2023-01-15T16:49:32.304Z,32.60
2023-01-15T16:52:03.382Z,33.60
2023-01-15T16:54:33.762Z,33.70
2023-01-15T16:57:03.650Z,27.50
2023-01-15T16:59:31.959Z,28.70
2023-01-15T17:02:02.816Z,26.50
2023-01-15T17:04:36.836Z,29.90
2023-01-15T17:07:28.545Z,27.80
2023-01-15T17:09:59.495Z,24.90
2023-01-15T17:12:29.994Z,26.30
2023-01-15T17:15:17.624Z,30.90
2023-01-15T17:17:48.421Z,28.50
2023-01-15T17:20:19.062Z,27.50
2023-01-15T17:22:49.672Z,23.50
2023-01-15T17:25:31.012Z,23.60
2023-01-15T17:28:01.680Z,25.70
2023-01-15T17:30:31.528Z,24.70
2023-01-15T17:33:05.668Z,23.60
2023-01-15T17:35:38.139Z,25.90
2023-01-15T17:38:07.669Z,23.10
2023-01-15T17:40:35.927Z,23.30
2023-01-15T17:43:04.534Z,28.60
2023-01-15T17:45:33.933Z,24.80
2023-01-15T17:48:04.620Z,23.10
2023-01-15T17:50:55.202Z,27.20
2023-01-15T17:53:23.170Z,23.00
2023-01-15T17:56:09.926Z,25.20
2023-01-15T17:58:56.652Z,23.90
2023-01-15T18:01:48.497Z,27.40
2023-01-15T18:05:13.916Z,24.30
2023-01-15T18:07:43.275Z,31.10
2023-01-15T18:10:19.200Z,24.70
2023-01-15T18:12:50.174Z,25.90
2023-01-15T18:15:19.648Z,25.70
2023-01-15T18:17:49.710Z,27.60
2023-01-15T18:20:17.965Z,26.60
2023-01-15T18:22:46.131Z,26.70
2023-01-15T18:25:14.944Z,25.40
2023-01-15T18:27:44.538Z,28.20
2023-01-15T18:30:15.711Z,27.10
2023-01-15T18:32:45.744Z,22.70
2023-01-15T18:35:14.969Z,22.70
2023-01-15T18:37:44.418Z,28.00
2023-01-15T18:40:12.808Z,26.20
2023-01-15T18:43:00.833Z,25.40
2023-01-15T18:45:47.590Z,20.70
2023-01-15T18:48:15.845Z,22.10
2023-01-15T18:50:44.293Z,24.40
2023-01-15T18:53:13.085Z,28.10
2023-01-15T18:55:44.029Z,22.70
2023-01-15T18:58:12.091Z,20.20
2023-01-15T19:00:40.565Z,20.80
2023-01-15T19:03:08.811Z,24.70
2023-01-15T19:05:36.843Z,26.50
2023-01-15T19:08:05.295Z,27.20
2023-01-15T19:10:33.489Z,23.10
2023-01-15T19:13:03.211Z,25.70
2023-01-15T19:15:50.192Z,30.90
2023-01-15T19:18:37.126Z,30.70
2023-01-15T19:21:08.682Z,32.10
2023-01-15T19:23:36.962Z,30.30
2023-01-15T19:26:05.162Z,41.30
2023-01-15T19:28:33.543Z,46.50
2023-01-15T19:31:25.807Z,49.60
2023-01-15T19:34:13.138Z,48.10
2023-01-15T19:36:46.540Z,42.80
2023-01-15T19:39:17.425Z,42.60
2023-01-15T19:42:04.279Z,46.40
2023-01-15T19:44:50.828Z,52.80
2023-01-15T19:47:44.920Z,54.10
2023-01-15T19:50:21.606Z,50.40
2023-01-15T19:52:52.380Z,55.20
2023-01-15T19:55:23.488Z,57.10
2023-01-15T19:58:06.610Z,52.10
2023-01-15T20:00:37.228Z,59.30
2023-01-15T20:03:11.683Z,55.20
2023-01-15T20:05:41.540Z,51.40
2023-01-15T20:08:14.502Z,53.90
2023-01-15T20:10:45.315Z,47.40
2023-01-15T20:13:38.719Z,48.20
2023-01-15T20:16:14.031Z,48.40
2023-01-15T20:18:42.107Z,46.50
2023-01-15T20:21:14.732Z,47.20
2023-01-15T20:23:43.356Z,53.10
2023-01-15T20:26:13.931Z,52.90
2023-01-15T20:28:43.128Z,53.10
2023-01-15T20:31:16.839Z,57.90
2023-01-15T20:33:46.275Z,56.40
2023-01-15T20:36:15.004Z,58.40
2023-01-15T20:38:43.143Z,59.80
2023-01-15T20:41:30.079Z,62.80
2023-01-15T20:44:16.605Z,63.20
2023-01-15T20:46:44.512Z,64.00
2023-01-15T20:49:25.297Z,51.00
2023-01-15T20:51:54.982Z,53.50
2023-01-15T20:54:24.896Z,63.00
2023-01-15T20:56:55.212Z,58.20
2023-01-15T20:59:23.420Z,53.80
2023-01-15T21:01:54.113Z,60.40
2023-01-15T21:04:22.980Z,57.10
2023-01-15T21:06:51.476Z,67.50
2023-01-15T21:09:19.761Z,58.50
2023-01-15T21:11:47.905Z,62.70
2023-01-15T21:14:15.894Z,63.20
2023-01-15T21:16:43.838Z,64.50
2023-01-15T21:19:11.978Z,55.50
2023-01-15T21:21:40.813Z,55.00
2023-01-15T21:24:09.183Z,51.50
2023-01-15T21:26:37.159Z,54.70
2023-01-15T21:29:05.247Z,54.80
2023-01-15T21:31:33.242Z,52.20
2023-01-15T21:34:01.923Z,56.10
2023-01-15T21:36:30.393Z,52.70
2023-01-15T21:38:59.199Z,55.10
2023-01-15T21:41:46.309Z,62.10
2023-01-15T21:44:32.848Z,48.60
2023-01-15T21:47:06.981Z,61.00
2023-01-15T21:49:35.382Z,51.90
2023-01-15T21:52:07.094Z,56.90
2023-01-15T21:54:35.295Z,59.00
2023-01-15T21:57:03.531Z,62.60
2023-01-15T21:59:32.291Z,57.40
2023-01-15T22:02:01.723Z,55.00
2023-01-15T22:04:36.251Z,55.90
2023-01-15T22:07:05.572Z,54.30
2023-01-15T22:09:33.526Z,65.40
2023-01-15T22:12:02.241Z,56.80
2023-01-15T22:14:32.593Z,58.20
2023-01-15T22:17:02.697Z,64.10
2023-01-15T22:19:32.749Z,57.00
2023-01-15T22:22:04.263Z,51.40
2023-01-15T22:24:34.211Z,50.50
2023-01-15T22:27:04.015Z,58.80
2023-01-15T22:29:40.287Z,59.60
2023-01-15T22:32:10.872Z,58.00
2023-01-15T22:34:39.280Z,64.80
2023-01-15T22:37:10.209Z,60.20
2023-01-15T22:39:40.329Z,61.90
2023-01-15T22:42:24.562Z,60.90
2023-01-15T22:44:53.062Z,50.40
2023-01-15T22:47:21.858Z,61.40
2023-01-15T22:49:50.278Z,58.80
2023-01-15T22:52:18.530Z,61.10
2023-01-15T22:54:46.972Z,57.70
2023-01-15T22:57:17.022Z,61.50
2023-01-15T22:59:45.505Z,59.90
2023-01-15T23:02:14.252Z,56.30
2023-01-15T23:04:42.620Z,60.00
2023-01-15T23:07:10.714Z,59.10
2023-01-15T23:09:39.426Z,58.20
2023-01-15T23:12:07.728Z,56.40
2023-01-15T23:14:36.935Z,55.10
2023-01-15T23:17:04.933Z,45.70
2023-01-15T23:19:33.602Z,54.20
2023-01-15T23:22:01.585Z,51.20
2023-01-15T23:24:29.650Z,59.20
2023-01-15T23:26:57.576Z,56.20
2023-01-15T23:29:25.450Z,56.30
2023-01-15T23:31:53.478Z,55.80
2023-01-15T23:34:21.453Z,56.90
2023-01-15T23:36:49.680Z,63.80
2023-01-15T23:39:18.191Z,54.40
2023-01-15T23:42:04.761Z,54.30
2023-01-15T23:44:51.522Z,62.50
2023-01-15T23:47:19.477Z,60.20
2023-01-15T23:49:47.677Z,59.40
2023-01-15T23:52:15.604Z,56.90
2023-01-15T23:54:43.616Z,58.90
2023-01-15T23:57:11.918Z,56.40
2023-01-15T23:59:39.981Z,63.70
